Terminal Aerodrome Forecast
Issued by NWS

Home | Current Version | Previous Version | Text Only | Print | Product List | Glossary On
Versions: 1 2 3 4 5 6 7 8 9 10 11 12 13 14 15
000
FTUS45 KTFX 091733
TAFLWT
TAF
KLWT 091733Z 0918/1018 12006KT P6SM -SN BKN035 OVC070
     FM092300 12007KT P6SM OVC040
     FM100600 13007KT P6SM -SN OVC030
     FM101200 16006KT 4SM -SN BKN007 OVC015
     FM101500 09005KT 2SM -SN BKN007 OVC015=

USA.gov is the U.S. government's official web portal to all federal, state and local government web resources and services.